KNPA/NPA METAR and TAF weather

Enter ICAO airport designator
Station Type Date Time Source
KNPA METAR 2021/09/19 12:56 UTC NOAA

KNPA 191256Z AUTO 04004KT 10SM FEW005 26/23 A2999 RMK AO2 SLP156 T02560233 $


Station Type Date Time Source
KNPA Decoded METAR 2021/09/19 12:56 UTC NOAA

Pensacola, Naval Air Station, FL, United States (KNPA) 30-21-22N 087-19-24W 10M
Sep 19, 2021 - 08:56 AM EDT / 2021.09.19 1256 UTC
Wind: from the NE (040 degrees) at 5 MPH (4 KT):0
Visibility: 10 mile(s):0
Sky conditions: mostly clear
Temperature: 78.1 F (25.6 C)
Dew Point: 73.9 F (23.3 C)
Relative Humidity: 87%
Pressure (altimeter): 29.99 in. Hg (1015 hPa)
ob: KNPA 191256Z AUTO 04004KT 10SM FEW005 26/23 A2999 RMK AO2 SLP156 T02560233
cycle: 13

Station Type Date Time Source
KNPA TAF 2021/09/17 15:10 UTC NOAA

TAF KNPA 1715/1815 17007KT 9999 VCTS FEW025CB SCT050 BKN120 BKN250 QNH2999INS
TEMPO 1716/1718 6000 SHRA FEW015 BKN025CB OVC050
FM171800 19010KT 9999 VCTS SCT035CB BKN120 BKN250 QNH2995INS
TEMPO 1718/1723 VRB15G25KT 4800 TSRA FEW015 BKN025CB OVC090
FM180100 17007KT 9999 VCSH FEW020 BKN040 OVC100 QNH3000INS
TEMPO 1803/1809 6000 SHRA BKN020
FM181000 14005KT 9999 VCSH FEW012 BKN025 OVC080 QNH2998INS T29/1718Z T26/1812Z FN20053

Example: see airport list